Estación Meteorológica Peña el Pijo (Robertgarden) [ 01/30/23 15:02:10 CET ]

Fecha Hora Presion(HPa) Temp (°C) Humedad % Rocio (°C) Viento ( m/s) Direccion Lluvia 1Hora(mm) Lluvia 24H(mm) LLuvia Total(mm)
2010-Nov-23 01:01:13 1003.200 3.1 73 -1.3         2.07
2010-Nov-23 02:03:12 1003.000 2.5 77 -1.1         2.07
2010-Nov-23 03:01:13 1002.900 1.3 80 -1.8         2.07
2010-Nov-23 04:01:16 1003.100 1.8 83 -0.8         2.07
2010-Nov-23 05:01:16 1003.000 2.3 83 -0.3         2.07
2010-Nov-23 06:01:12 1003.100 2.5 84 0.0         2.07
2010-Nov-23 07:01:18 1003.000 3.4 80 0.3         2.07
2010-Nov-23 08:01:13 1003.500 3.5 78 0.0         2.07
2010-Nov-23 09:01:14 1004.000 3.3 79 0.0         2.07
2010-Nov-23 10:01:14 1004.200 5.1 76 1.2         2.07
2010-Nov-23 11:01:18 1004.500 6.3 70 1.3         2.07
2010-Nov-23 12:01:14 1004.000 7.0 67 1.3         2.07
2010-Nov-23 13:01:13 1003.500 7.9 64 1.5         2.07
2010-Nov-23 14:01:12 1002.900 8.8 60 1.5 1.3 S     2.07
2010-Nov-23 15:01:13 1002.800 11.5 53 2.2         2.07
2010-Nov-23 16:01:13 1003.000 9.0 59 1.4         2.07
2010-Nov-23 17:01:18 1003.000 8.3 65 2.1         2.07
2010-Nov-23 18:01:11 1003.100 7.3 70 2.2         2.07
2010-Nov-23 19:01:10 1003.300 6.3 73 1.8         2.07
2010-Nov-23 20:01:18 1003.600 6.6 75 2.5         2.07
2010-Nov-23 21:01:12 1003.700 6.2 77 2.5         2.07
2010-Nov-23 22:01:12 1003.600 5.9 79 2.5         2.07
2010-Nov-23 23:01:14 1003.500 5.8 82 2.9         2.07

Temperatura Máxima:11°    Temperatura Mínima:
Presión Máxima:1004.500 Hpa    Presión Mínima:1002.800 Hpa


Volver